createdAt,value
2024-05-09T00:04:43.462Z,92960.56
2024-05-09T00:09:45.565Z,92955.22
2024-05-09T00:14:47.758Z,92953.22
2024-05-09T00:19:49.774Z,92959.63
2024-05-09T00:24:51.778Z,92951.88
2024-05-09T00:29:53.751Z,92951.06
2024-05-09T00:34:55.703Z,92953.81
2024-05-09T00:39:57.678Z,92949.47
2024-05-09T00:44:59.707Z,92962.00
2024-05-09T00:50:04.126Z,92954.22
2024-05-09T00:55:07.722Z,92959.56
2024-05-09T01:00:18.586Z,92949.78
2024-05-09T01:05:28.797Z,92947.91
2024-05-09T01:10:34.283Z,92948.56
2024-05-09T01:15:37.424Z,92956.38
2024-05-09T01:20:42.855Z,92945.75
2024-05-09T01:25:47.239Z,92908.06
2024-05-09T01:30:49.358Z,92939.53
2024-05-09T01:35:51.313Z,92946.56
2024-05-09T01:40:53.327Z,92940.94
2024-05-09T01:45:55.540Z,92948.25
2024-05-09T01:50:57.700Z,92953.59
2024-05-09T01:55:59.825Z,92947.78
2024-05-09T02:01:02.077Z,92945.28
2024-05-09T02:06:04.440Z,92936.38
2024-05-09T02:11:08.829Z,92910.84
2024-05-09T02:16:14.806Z,92907.19
2024-05-09T02:21:16.821Z,92932.53
2024-05-09T02:26:18.874Z,92926.03
2024-05-09T02:31:20.904Z,92936.94
2024-05-09T02:36:22.881Z,92934.34
2024-05-09T02:41:24.949Z,92921.84
2024-05-09T02:46:27.195Z,92945.69
2024-05-09T02:51:29.296Z,92933.41
2024-05-09T02:56:31.296Z,92927.63
2024-05-09T03:01:33.316Z,92935.84
2024-05-09T03:06:40.424Z,92933.31
2024-05-09T03:11:42.508Z,92930.72
2024-05-09T03:16:44.555Z,92934.75
2024-05-09T03:21:46.538Z,92931.31
2024-05-09T03:26:49.066Z,92930.22
2024-05-09T03:31:51.069Z,92931.50
2024-05-09T03:36:53.131Z,92931.09
2024-05-09T03:41:55.101Z,92931.38
2024-05-09T03:46:57.566Z,92934.94
2024-05-09T03:52:04.927Z,92931.94
2024-05-09T03:57:06.906Z,92933.06
2024-05-09T04:02:09.033Z,92939.16
2024-05-09T04:07:11.229Z,92943.00
2024-05-09T04:12:13.357Z,92944.59
2024-05-09T04:17:15.546Z,92938.72
2024-05-09T04:22:17.524Z,92943.75
2024-05-09T04:27:19.600Z,92938.69
2024-05-09T04:32:21.774Z,92954.19
2024-05-09T04:37:25.562Z,92962.09
2024-05-09T04:42:27.540Z,92961.25
2024-05-09T04:47:29.738Z,92972.69
2024-05-09T04:52:31.996Z,92970.16
2024-05-09T04:57:33.977Z,92975.88
2024-05-09T05:02:37.277Z,92981.31
2024-05-09T05:07:39.365Z,92982.31
2024-05-09T05:13:00.060Z,92984.31
2024-05-09T05:18:02.244Z,92981.69
2024-05-09T05:23:08.723Z,92968.06
2024-05-09T05:28:11.313Z,92982.53
2024-05-09T05:33:15.577Z,92986.84
2024-05-09T05:38:19.143Z,92953.25
2024-05-09T05:43:22.015Z,92985.53
2024-05-09T05:48:24.246Z,92984.44
2024-05-09T05:53:26.576Z,92984.41
2024-05-09T05:58:28.576Z,92980.69
2024-05-09T06:03:30.673Z,92980.00
2024-05-09T06:08:32.730Z,92972.84
2024-05-09T06:13:34.718Z,92973.59
2024-05-09T06:18:36.725Z,92981.94
2024-05-09T06:23:46.459Z,92985.69
2024-05-09T06:28:48.513Z,92996.09
2024-05-09T06:33:50.549Z,92987.56
2024-05-09T06:38:52.544Z,92999.16
2024-05-09T06:43:54.510Z,92991.44
2024-05-09T06:48:57.009Z,92998.31
2024-05-09T06:53:59.249Z,92979.16
2024-05-09T06:59:01.547Z,92977.53
2024-05-09T07:04:03.717Z,93000.63
2024-05-09T07:09:05.711Z,92992.63
2024-05-09T07:14:07.756Z,92983.88
2024-05-09T07:19:10.009Z,92996.13
2024-05-09T07:24:12.052Z,92999.03
2024-05-09T07:29:14.039Z,92993.41
2024-05-09T07:34:16.659Z,92996.06
2024-05-09T07:39:18.802Z,92991.34
2024-05-09T07:44:20.918Z,92994.56
2024-05-09T07:54:28.877Z,92985.13
2024-05-09T07:59:33.388Z,92995.88
2024-05-09T08:04:37.214Z,92957.78
2024-05-09T08:09:39.874Z,92968.81
2024-05-09T08:14:41.931Z,92978.44
2024-05-09T08:19:43.990Z,92977.19
2024-05-09T08:24:46.882Z,92974.31
2024-05-09T08:29:49.015Z,92957.28
2024-05-09T08:34:51.042Z,92962.59
2024-05-09T08:39:53.168Z,92931.72
2024-05-09T08:44:55.215Z,92968.47
2024-05-09T08:50:00.613Z,92941.97
2024-05-09T08:55:03.647Z,92969.56
2024-05-09T09:00:10.325Z,92960.59
2024-05-09T09:05:17.715Z,92964.06
2024-05-09T09:10:29.218Z,92967.19
2024-05-09T09:15:33.816Z,92967.13
2024-05-09T09:20:37.088Z,92960.19
2024-05-09T09:25:40.031Z,92937.84
2024-05-09T09:30:43.059Z,92931.28
2024-05-09T09:35:45.186Z,92950.03
2024-05-09T09:40:50.399Z,92954.44
2024-05-09T09:45:55.363Z,92954.19
2024-05-09T09:50:58.507Z,92965.59
2024-05-09T09:56:02.130Z,92955.84
2024-05-09T10:01:04.285Z,92932.44
2024-05-09T10:06:09.097Z,92951.53
2024-05-09T10:11:11.395Z,92959.41
2024-05-09T10:16:19.933Z,92948.06
2024-05-09T10:21:22.032Z,92949.28
2024-05-09T10:26:37.360Z,92947.94
2024-05-09T10:31:42.793Z,92950.88
2024-05-09T10:36:44.891Z,92918.81
2024-05-09T10:41:47.243Z,92931.59
2024-05-09T10:46:50.442Z,92837.81
2024-05-09T10:51:52.811Z,92935.56
2024-05-09T10:56:58.221Z,92934.88
2024-05-09T11:02:04.477Z,92923.47
2024-05-09T11:07:12.125Z,92929.78
2024-05-09T11:12:14.434Z,92931.59
2024-05-09T11:17:16.479Z,92920.09
2024-05-09T11:22:18.685Z,92899.88
2024-05-09T11:27:23.679Z,92905.41
2024-05-09T11:32:29.944Z,92906.28
2024-05-09T11:37:36.045Z,92905.25
2024-05-09T11:42:39.162Z,92905.72
2024-05-09T11:47:41.599Z,92903.19
2024-05-09T11:52:43.839Z,92901.34
2024-05-09T11:57:45.984Z,92894.25
2024-05-09T12:02:47.969Z,92887.50
2024-05-09T12:07:51.265Z,92889.88
2024-05-09T12:12:53.971Z,92877.09
2024-05-09T12:17:58.894Z,92808.28
2024-05-09T12:23:03.181Z,92872.06
2024-05-09T12:28:05.887Z,92875.59
2024-05-09T12:33:09.722Z,92866.78
2024-05-09T12:38:12.028Z,92854.59
2024-05-09T12:43:14.025Z,92866.41
2024-05-09T12:48:16.247Z,92864.66
2024-05-09T12:53:18.488Z,92862.88
2024-05-09T12:58:23.721Z,92863.28
2024-05-09T13:03:25.910Z,92842.75
2024-05-09T13:08:27.902Z,92855.81
2024-05-09T13:13:29.879Z,92843.59
2024-05-09T13:18:33.494Z,92843.81
2024-05-09T13:23:37.942Z,92843.94
2024-05-09T13:28:39.947Z,92837.50
2024-05-09T13:33:42.075Z,92836.47
2024-05-09T13:38:44.310Z,92826.94
2024-05-09T13:43:46.222Z,92799.91
2024-05-09T13:48:48.297Z,92820.47
2024-05-09T13:53:50.539Z,92796.47
2024-05-09T13:58:52.663Z,92825.38
2024-05-09T14:03:54.883Z,92820.56
2024-05-09T14:08:56.922Z,92810.19
2024-05-09T14:13:58.903Z,92817.34
2024-05-09T14:19:01.060Z,92788.75
2024-05-09T14:24:03.139Z,92810.00
2024-05-09T14:29:05.155Z,92813.91
2024-05-09T14:34:07.315Z,92780.31
2024-05-09T14:39:09.343Z,92804.06
2024-05-09T14:44:12.693Z,92796.22
2024-05-09T14:49:14.859Z,92802.84
2024-05-09T14:54:17.098Z,92795.00
2024-05-09T14:59:19.255Z,92800.31
2024-05-09T15:04:21.606Z,92798.81
2024-05-09T15:09:24.889Z,92802.91
2024-05-09T15:14:26.914Z,92808.53
2024-05-09T15:19:29.142Z,92776.78
2024-05-09T15:24:33.287Z,92808.59
2024-05-09T15:29:35.382Z,92798.75
2024-05-09T15:34:37.535Z,92778.59
2024-05-09T15:39:40.361Z,92803.72
2024-05-09T15:44:42.346Z,92801.38
2024-05-09T15:49:44.542Z,92801.94
2024-05-09T15:54:47.030Z,92795.63
2024-05-09T15:59:49.267Z,92784.06
2024-05-09T16:04:51.308Z,92786.09
2024-05-09T16:09:53.418Z,92797.19
2024-05-09T16:14:55.752Z,92796.50
2024-05-09T16:19:57.799Z,92794.59
2024-05-09T16:24:59.800Z,92809.34
2024-05-09T16:30:05.447Z,92788.59
2024-05-09T16:35:09.020Z,92782.34
2024-05-09T16:40:21.758Z,92765.03
2024-05-09T16:45:31.837Z,92762.34
2024-05-09T16:50:35.575Z,92792.84
2024-05-09T16:55:38.574Z,92781.75
2024-05-09T17:00:43.414Z,92761.28
2024-05-09T17:05:47.360Z,92778.78
2024-05-09T17:10:50.237Z,92788.38
2024-05-09T17:15:52.528Z,92785.13
2024-05-09T17:20:54.977Z,92790.19
2024-05-09T17:25:57.007Z,92802.22
2024-05-09T17:30:59.045Z,92778.25
2024-05-09T17:36:01.094Z,92801.19
2024-05-09T17:41:03.114Z,92805.97
2024-05-09T17:46:07.128Z,92800.34
2024-05-09T17:51:09.723Z,92797.66
2024-05-09T17:56:11.930Z,92802.00
2024-05-09T18:01:14.094Z,92809.91
2024-05-09T18:06:16.746Z,92822.13
2024-05-09T18:11:18.796Z,92819.00
2024-05-09T18:16:21.019Z,92823.56
2024-05-09T18:21:23.021Z,92800.03
2024-05-09T18:26:25.125Z,92830.84
2024-05-09T18:31:27.206Z,92817.81
2024-05-09T18:36:29.493Z,92815.94
2024-05-09T18:41:31.533Z,92820.03
2024-05-09T18:46:33.569Z,92823.91
2024-05-09T18:51:35.618Z,92825.34
2024-05-09T18:56:37.754Z,92825.28
2024-05-09T19:01:42.205Z,92832.06
2024-05-09T19:06:47.877Z,92837.97
2024-05-09T19:11:49.873Z,92835.13
2024-05-09T19:16:51.910Z,92837.41
2024-05-09T19:21:54.029Z,92838.34
2024-05-09T19:26:56.995Z,92846.84
2024-05-09T19:31:59.003Z,92852.91
2024-05-09T19:37:02.461Z,92861.00
2024-05-09T19:42:04.871Z,92861.63
2024-05-09T19:47:06.987Z,92866.50
2024-05-09T19:52:09.058Z,92861.94
2024-05-09T19:57:11.109Z,92870.31
2024-05-09T20:02:13.410Z,92862.00
2024-05-09T20:07:15.609Z,92859.59
2024-05-09T20:12:17.695Z,92865.28
2024-05-09T20:17:19.628Z,92872.94
2024-05-09T20:22:21.627Z,92877.31
2024-05-09T20:27:24.150Z,92868.44
2024-05-09T20:32:26.255Z,92873.53
2024-05-09T20:37:28.263Z,92885.03
2024-05-09T20:42:30.228Z,92892.63
2024-05-09T20:47:32.288Z,92884.75
2024-05-09T20:52:34.342Z,92894.28
2024-05-09T20:57:36.354Z,92884.34
2024-05-09T21:02:40.849Z,92887.38
2024-05-09T21:07:42.951Z,92908.06
2024-05-09T21:12:44.951Z,92903.56
2024-05-09T21:17:47.051Z,92897.59
2024-05-09T21:22:49.185Z,92898.47
2024-05-09T21:27:51.249Z,92904.03
2024-05-09T21:32:53.240Z,92895.03
2024-05-09T21:37:55.208Z,92896.63
2024-05-09T21:42:57.237Z,92894.28
2024-05-09T21:47:59.579Z,92890.81
2024-05-09T21:53:01.777Z,92892.22
2024-05-09T21:58:04.261Z,92889.03
2024-05-09T22:03:08.316Z,92887.47
2024-05-09T22:08:11.354Z,92886.69
2024-05-09T22:13:13.539Z,92882.66
2024-05-09T22:18:15.616Z,92875.41
2024-05-09T22:23:17.751Z,92875.03
2024-05-09T22:28:19.865Z,92877.97
2024-05-09T22:33:22.170Z,92867.63
2024-05-09T22:38:26.162Z,92846.06
2024-05-09T22:43:28.144Z,92863.13
2024-05-09T22:48:30.204Z,92870.00
2024-05-09T22:53:32.175Z,92865.09
2024-05-09T22:58:34.758Z,92880.44
2024-05-09T23:03:39.152Z,92837.75
2024-05-09T23:08:41.245Z,92853.16
2024-05-09T23:13:43.395Z,92860.91
2024-05-09T23:18:45.430Z,92874.75
2024-05-09T23:23:47.490Z,92827.06
2024-05-09T23:28:49.443Z,92872.63
2024-05-09T23:33:51.757Z,92873.25
2024-05-09T23:38:53.819Z,92873.44
2024-05-09T23:43:55.831Z,92869.59
2024-05-09T23:48:57.915Z,92862.09
2024-05-09T23:53:59.994Z,92864.34
2024-05-09T23:59:02.065Z,92870.25
